createdAt,value
2017-01-26T00:00:15.857Z,1032.45
2017-01-26T00:01:16.536Z,1032.46
2017-01-26T00:02:17.195Z,1032.44
2017-01-26T00:03:17.866Z,1032.53
2017-01-26T00:04:18.546Z,1032.58
2017-01-26T00:05:19.240Z,1032.51
2017-01-26T00:06:19.942Z,1032.54
2017-01-26T00:07:20.613Z,1032.56
2017-01-26T00:08:21.291Z,1032.49
2017-01-26T00:09:21.954Z,1032.51
2017-01-26T00:10:22.627Z,1032.5
2017-01-26T00:11:23.301Z,1032.51
2017-01-26T00:12:23.971Z,1032.46
2017-01-26T00:13:24.647Z,1032.5
2017-01-26T00:14:25.359Z,1032.48
2017-01-26T00:15:26.054Z,1032.48
2017-01-26T00:16:26.724Z,1032.51
2017-01-26T00:17:27.399Z,1032.49
2017-01-26T00:18:28.081Z,1032.47
2017-01-26T00:19:28.761Z,1032.48
2017-01-26T00:20:29.442Z,1032.45
2017-01-26T00:21:30.132Z,1032.43
2017-01-26T00:22:30.799Z,1032.39
2017-01-26T00:23:31.486Z,1032.44
2017-01-26T00:24:32.159Z,1032.39
2017-01-26T00:25:32.852Z,1032.37
2017-01-26T00:26:33.528Z,1032.42
2017-01-26T00:27:34.195Z,1032.41
2017-01-26T00:28:34.884Z,1032.36
2017-01-26T00:29:35.560Z,1032.34
2017-01-26T00:30:36.237Z,1032.36
2017-01-26T00:31:36.909Z,1032.34
2017-01-26T00:32:37.581Z,1032.35
2017-01-26T00:33:38.251Z,1032.32
2017-01-26T00:34:38.952Z,1032.31
2017-01-26T00:35:39.626Z,1032.31
2017-01-26T00:36:40.303Z,1032.27
2017-01-26T00:37:40.983Z,1032.29
2017-01-26T00:38:41.652Z,1032.24
2017-01-26T00:39:42.347Z,1032.25
2017-01-26T00:40:43.015Z,1032.27
2017-01-26T00:41:43.687Z,1032.27
2017-01-26T00:42:44.359Z,1032.25
2017-01-26T00:43:45.076Z,1032.25
2017-01-26T00:44:45.747Z,1032.22
2017-01-26T00:45:46.432Z,1032.2
2017-01-26T00:46:47.107Z,1032.2
2017-01-26T00:47:47.802Z,1032.2
2017-01-26T00:48:48.484Z,1032.22
2017-01-26T00:49:49.171Z,1032.21
2017-01-26T00:50:49.845Z,1032.21
2017-01-26T00:51:50.525Z,1032.17
2017-01-26T00:52:51.191Z,1032.2
2017-01-26T00:53:52.000Z,1032.2
2017-01-26T00:54:52.677Z,1032.18
2017-01-26T00:55:53.342Z,1032.14
2017-01-26T00:56:54.019Z,1032.16
2017-01-26T00:57:54.685Z,1032.18
2017-01-26T00:58:55.366Z,1032.18
2017-01-26T00:59:56.042Z,1032.16
2017-01-26T01:00:56.744Z,1032.11
2017-01-26T01:01:57.450Z,1032.14
2017-01-26T01:02:58.122Z,1032.18
2017-01-26T01:03:58.798Z,1032.16
2017-01-26T01:04:59.478Z,1032.15
2017-01-26T01:06:00.138Z,1032.17
2017-01-26T01:07:00.815Z,1032.13
2017-01-26T01:08:01.504Z,1032.16
2017-01-26T01:09:02.177Z,1032.17
2017-01-26T01:10:02.918Z,1032.14
2017-01-26T01:11:03.581Z,1032.14
2017-01-26T01:12:04.249Z,1032.17
2017-01-26T01:13:04.923Z,1032.12
2017-01-26T01:14:05.600Z,1032.12
2017-01-26T01:15:06.275Z,1032.1
2017-01-26T01:16:06.939Z,1032.12
2017-01-26T01:17:07.608Z,1032.11
2017-01-26T01:18:08.276Z,1032.17
2017-01-26T01:19:08.958Z,1032.14
2017-01-26T01:20:09.619Z,1032.09
2017-01-26T01:21:10.292Z,1032.15
2017-01-26T01:22:10.976Z,1032.1
2017-01-26T01:23:11.729Z,1032.09
2017-01-26T01:24:12.427Z,1032.13
2017-01-26T01:25:13.099Z,1032.12
2017-01-26T01:26:13.765Z,1032.1
2017-01-26T01:27:14.436Z,1032.07
2017-01-26T01:28:15.104Z,1032.08
2017-01-26T01:29:15.777Z,1032.04
2017-01-26T01:30:16.451Z,1032.05
2017-01-26T01:31:17.121Z,1032.04
2017-01-26T01:32:17.794Z,1032.05
2017-01-26T01:33:18.475Z,1032.06
2017-01-26T01:34:19.144Z,1032.08
2017-01-26T01:35:19.829Z,1032.08
2017-01-26T01:36:20.496Z,1032.09
2017-01-26T01:37:21.172Z,1032.07
2017-01-26T01:38:21.854Z,1032.04
2017-01-26T01:39:22.543Z,1032.04
2017-01-26T01:40:23.216Z,1032.05
2017-01-26T01:41:23.894Z,1032.05
2017-01-26T01:42:24.559Z,1032.04
2017-01-26T01:43:25.252Z,1032.05
2017-01-26T01:44:25.919Z,1032.04
2017-01-26T01:45:26.596Z,1032.04
2017-01-26T01:46:27.274Z,1032.08
2017-01-26T01:47:27.999Z,1032.03
2017-01-26T01:48:28.670Z,1032.03
2017-01-26T01:49:29.346Z,1032.03
2017-01-26T01:50:30.032Z,1032.02
2017-01-26T01:51:30.709Z,1031.98
2017-01-26T01:52:31.399Z,1031.98
2017-01-26T01:53:32.078Z,1032
2017-01-26T01:54:32.738Z,1031.94
2017-01-26T01:55:33.449Z,1031.93
2017-01-26T01:56:34.139Z,1031.92
2017-01-26T01:57:34.833Z,1031.88
2017-01-26T01:58:35.504Z,1031.92
2017-01-26T01:59:36.179Z,1031.89
2017-01-26T02:00:36.856Z,1031.91
2017-01-26T02:01:37.551Z,1031.84
2017-01-26T02:02:38.269Z,1031.86
2017-01-26T02:03:38.960Z,1031.84
2017-01-26T02:04:39.636Z,1031.77
2017-01-26T02:05:40.322Z,1031.8
2017-01-26T02:06:41.002Z,1031.77
2017-01-26T02:07:41.695Z,1031.74
2017-01-26T02:08:42.390Z,1031.71
2017-01-26T02:09:43.082Z,1031.74
2017-01-26T02:10:43.757Z,1031.76
2017-01-26T02:11:44.460Z,1031.7
2017-01-26T02:12:45.144Z,1031.68
2017-01-26T02:13:45.819Z,1031.68
2017-01-26T02:14:46.498Z,1031.67
2017-01-26T02:15:47.170Z,1031.63
2017-01-26T02:16:47.860Z,1031.6
2017-01-26T02:17:48.533Z,1031.65
2017-01-26T02:18:49.208Z,1031.7
2017-01-26T02:19:49.878Z,1031.59
2017-01-26T02:20:50.547Z,1031.62
2017-01-26T02:21:51.246Z,1031.56
2017-01-26T02:22:51.927Z,1031.64
2017-01-26T02:23:52.598Z,1031.58
2017-01-26T02:24:53.275Z,1031.57
2017-01-26T02:25:53.953Z,1031.59
2017-01-26T02:26:54.622Z,1031.58
2017-01-26T02:27:55.296Z,1031.54
2017-01-26T02:28:55.971Z,1031.49
2017-01-26T02:29:56.644Z,1031.49
2017-01-26T02:30:57.307Z,1031.48
2017-01-26T02:31:57.974Z,1031.46
2017-01-26T02:32:58.649Z,1031.47
2017-01-26T02:33:59.334Z,1031.48
2017-01-26T02:35:00.003Z,1031.42
2017-01-26T02:36:00.675Z,1031.45
2017-01-26T02:37:01.355Z,1031.45
2017-01-26T02:38:02.023Z,1031.43
2017-01-26T02:39:02.687Z,1031.43
2017-01-26T02:40:03.365Z,1031.36
2017-01-26T02:41:04.031Z,1031.35
2017-01-26T02:42:04.732Z,1031.33
2017-01-26T02:43:05.427Z,1031.29
2017-01-26T02:44:06.125Z,1031.28
2017-01-26T02:45:06.783Z,1031.24
2017-01-26T02:46:07.450Z,1031.24
2017-01-26T02:47:08.121Z,1031.23
2017-01-26T02:48:08.800Z,1031.2
2017-01-26T02:49:09.476Z,1031.24
2017-01-26T02:50:10.145Z,1031.2
2017-01-26T02:51:10.827Z,1031.19
2017-01-26T02:52:11.485Z,1031.18
2017-01-26T02:53:12.164Z,1031.15
2017-01-26T02:54:12.838Z,1031.17
2017-01-26T02:55:13.507Z,1031.18
2017-01-26T02:56:14.186Z,1031.2
2017-01-26T02:57:14.856Z,1031.16
2017-01-26T02:58:15.533Z,1031.18
2017-01-26T02:59:16.201Z,1031.16
2017-01-26T03:00:16.868Z,1031.12
2017-01-26T03:01:17.546Z,1031.16
2017-01-26T03:02:18.223Z,1031.11
2017-01-26T03:03:19.065Z,1031.12
2017-01-26T03:04:19.740Z,1031.14
2017-01-26T03:05:20.516Z,1031.1
2017-01-26T03:06:21.241Z,1031.08
2017-01-26T03:07:21.927Z,1031.13
2017-01-26T03:08:22.620Z,1031.1
2017-01-26T03:09:23.440Z,1031.08
2017-01-26T03:10:24.145Z,1031.13
2017-01-26T03:11:24.880Z,1031.1
2017-01-26T03:12:25.571Z,1031.1
2017-01-26T03:13:26.238Z,1031.13
2017-01-26T03:14:26.945Z,1031.11
2017-01-26T03:15:27.659Z,1031.07
2017-01-26T03:16:28.343Z,1031.09
2017-01-26T03:17:29.026Z,1031.1
2017-01-26T03:18:30.103Z,1031.12
2017-01-26T03:19:30.777Z,1031.16
2017-01-26T03:20:31.517Z,1031.16
2017-01-26T03:21:32.200Z,1031.15
2017-01-26T03:22:32.867Z,1031.11
2017-01-26T03:23:33.682Z,1031.14
2017-01-26T03:24:34.383Z,1031.13
2017-01-26T03:25:35.111Z,1031.08
2017-01-26T03:26:35.978Z,1031.06
2017-01-26T03:27:36.621Z,1031.09
2017-01-26T03:28:37.354Z,1031.07
2017-01-26T03:29:38.168Z,1031.06
2017-01-26T03:30:38.907Z,1031.06
2017-01-26T03:31:39.603Z,1031.08
2017-01-26T03:32:40.277Z,1031.07
2017-01-26T03:33:40.961Z,1031.1
2017-01-26T03:34:41.802Z,1031.03
2017-01-26T03:35:42.551Z,1031.02
2017-01-26T03:36:43.291Z,1031.04
2017-01-26T03:37:43.979Z,1031.09
2017-01-26T03:38:44.693Z,1031.05
2017-01-26T03:39:45.468Z,1031.06
2017-01-26T03:40:46.230Z,1031.03
2017-01-26T03:41:46.874Z,1031.03
2017-01-26T03:42:47.547Z,1031.03
2017-01-26T03:43:48.278Z,1030.99
2017-01-26T03:44:48.928Z,1031.01
2017-01-26T03:45:49.658Z,1031.02
2017-01-26T03:46:50.341Z,1031
2017-01-26T03:47:51.014Z,1031
2017-01-26T03:48:51.959Z,1030.99
2017-01-26T03:49:52.722Z,1030.99
2017-01-26T03:50:53.407Z,1031.01
2017-01-26T03:51:54.084Z,1030.98
2017-01-26T03:52:54.800Z,1030.96
2017-01-26T03:53:55.479Z,1030.95
2017-01-26T03:54:56.148Z,1030.93
2017-01-26T03:55:56.824Z,1030.93
2017-01-26T03:56:57.528Z,1030.93
2017-01-26T03:57:58.222Z,1030.92
2017-01-26T03:58:58.910Z,1030.94
2017-01-26T03:59:59.586Z,1030.89
2017-01-26T04:01:00.276Z,1030.92
2017-01-26T04:02:00.966Z,1030.87
2017-01-26T04:03:01.629Z,1030.87
2017-01-26T04:04:02.317Z,1030.85
2017-01-26T04:05:03.026Z,1030.88
2017-01-26T04:06:03.709Z,1030.85
2017-01-26T04:07:04.382Z,1030.86
2017-01-26T04:08:05.066Z,1030.88
2017-01-26T04:09:05.740Z,1030.86
2017-01-26T04:10:06.406Z,1030.9
2017-01-26T04:11:07.080Z,1030.83
2017-01-26T04:12:07.768Z,1030.86
2017-01-26T04:13:08.472Z,1030.84
2017-01-26T04:14:09.143Z,1030.8
2017-01-26T04:15:09.864Z,1030.82
2017-01-26T04:16:10.560Z,1030.83
2017-01-26T04:17:11.239Z,1030.74
2017-01-26T04:18:11.906Z,1030.73
2017-01-26T04:19:12.591Z,1030.74
2017-01-26T04:20:13.286Z,1030.74
2017-01-26T04:21:13.985Z,1030.73
2017-01-26T04:22:14.641Z,1030.73
2017-01-26T04:23:15.350Z,1030.72
2017-01-26T04:24:16.051Z,1030.72
2017-01-26T04:25:16.750Z,1030.76
2017-01-26T04:26:17.436Z,1030.75
2017-01-26T04:27:18.106Z,1030.73
2017-01-26T04:28:18.892Z,1030.75
2017-01-26T04:29:19.460Z,1030.75
2017-01-26T04:30:20.124Z,1030.71
2017-01-26T04:31:20.797Z,1030.73
2017-01-26T04:32:21.466Z,1030.67
2017-01-26T04:33:22.234Z,1030.64
2017-01-26T04:34:22.904Z,1030.65
2017-01-26T04:35:23.584Z,1030.65
2017-01-26T04:36:24.280Z,1030.68
2017-01-26T04:37:24.969Z,1030.67
2017-01-26T04:38:25.637Z,1030.65
2017-01-26T04:39:26.331Z,1030.65
2017-01-26T04:40:27.003Z,1030.71
2017-01-26T04:41:27.720Z,1030.67
2017-01-26T04:42:28.394Z,1030.66
2017-01-26T04:43:29.080Z,1030.68
2017-01-26T04:44:29.748Z,1030.65
2017-01-26T04:45:30.478Z,1030.66
2017-01-26T04:46:31.154Z,1030.66
2017-01-26T04:47:31.855Z,1030.6
2017-01-26T04:48:32.541Z,1030.61
2017-01-26T04:49:33.225Z,1030.61
2017-01-26T04:50:33.880Z,1030.6
2017-01-26T04:51:34.541Z,1030.62
2017-01-26T04:52:35.260Z,1030.64
2017-01-26T04:53:35.943Z,1030.57
2017-01-26T04:54:36.651Z,1030.6
2017-01-26T04:55:37.339Z,1030.56
2017-01-26T04:56:38.023Z,1030.56
2017-01-26T04:57:38.849Z,1030.58
2017-01-26T04:58:39.375Z,1030.6
2017-01-26T04:59:40.041Z,1030.54
2017-01-26T05:00:40.714Z,1030.56
2017-01-26T05:01:41.511Z,1030.51
2017-01-26T05:02:42.341Z,1030.54
2017-01-26T05:03:43.034Z,1030.56
2017-01-26T05:04:43.704Z,1030.53
2017-01-26T05:05:44.871Z,1030.51
2017-01-26T05:06:45.102Z,1030.55
2017-01-26T05:07:45.775Z,1030.55
2017-01-26T05:08:46.444Z,1030.55
2017-01-26T05:09:47.114Z,1030.56
2017-01-26T05:10:47.791Z,1030.52
2017-01-26T05:11:48.466Z,1030.57
2017-01-26T05:12:49.139Z,1030.59
2017-01-26T05:13:49.819Z,1030.55
2017-01-26T05:14:50.534Z,1030.61
2017-01-26T05:15:51.204Z,1030.59
2017-01-26T05:16:51.890Z,1030.54
2017-01-26T05:17:52.565Z,1030.51
2017-01-26T05:18:53.234Z,1030.54
2017-01-26T05:19:54.007Z,1030.5
2017-01-26T05:20:54.682Z,1030.49
2017-01-26T05:21:55.396Z,1030.53
2017-01-26T05:22:56.081Z,1030.48
2017-01-26T05:23:56.757Z,1030.54
2017-01-26T05:24:57.453Z,1030.53
2017-01-26T05:25:58.142Z,1030.5
2017-01-26T05:26:58.825Z,1030.49
2017-01-26T05:27:59.494Z,1030.5
2017-01-26T05:29:00.245Z,1030.5
2017-01-26T05:30:00.931Z,1030.46
2017-01-26T05:31:01.604Z,1030.51
2017-01-26T05:32:02.274Z,1030.46
2017-01-26T05:33:02.943Z,1030.5
2017-01-26T05:34:03.606Z,1030.42
2017-01-26T05:35:04.280Z,1030.48
2017-01-26T05:36:04.953Z,1030.47
2017-01-26T05:37:05.648Z,1030.46
2017-01-26T05:38:06.318Z,1030.5
2017-01-26T05:39:07.075Z,1030.46
2017-01-26T05:40:07.748Z,1030.46
2017-01-26T05:41:08.415Z,1030.48
2017-01-26T05:42:09.157Z,1030.44
2017-01-26T05:43:09.839Z,1030.44
2017-01-26T05:44:10.508Z,1030.43
2017-01-26T05:45:11.196Z,1030.46
2017-01-26T05:46:11.981Z,1030.43
2017-01-26T05:47:12.638Z,1030.41
2017-01-26T05:48:13.331Z,1030.46
2017-01-26T05:49:14.023Z,1030.42
2017-01-26T05:50:14.681Z,1030.43
2017-01-26T05:51:15.373Z,1030.41
2017-01-26T05:52:16.061Z,1030.42
2017-01-26T05:53:16.737Z,1030.42
2017-01-26T05:54:17.832Z,1030.41
2017-01-26T05:55:18.495Z,1030.42
2017-01-26T05:56:19.164Z,1030.41
2017-01-26T05:57:19.852Z,1030.38
2017-01-26T05:58:20.546Z,1030.36
2017-01-26T05:59:21.428Z,1030.33
2017-01-26T06:00:22.121Z,1030.37
2017-01-26T06:01:22.804Z,1030.35
2017-01-26T06:02:23.581Z,1030.34
2017-01-26T06:03:24.290Z,1030.28
2017-01-26T06:04:24.991Z,1030.31
2017-01-26T06:05:25.672Z,1030.36
2017-01-26T06:06:26.349Z,1030.35
2017-01-26T06:07:27.023Z,1030.32
2017-01-26T06:08:27.770Z,1030.32
2017-01-26T06:09:28.445Z,1030.3
2017-01-26T06:10:29.125Z,1030.28
2017-01-26T06:11:29.852Z,1030.35
2017-01-26T06:12:30.696Z,1030.32
2017-01-26T06:13:31.383Z,1030.33
2017-01-26T06:14:32.057Z,1030.31
2017-01-26T06:15:32.746Z,1030.32
2017-01-26T06:16:34.497Z,1030.28
2017-01-26T06:17:35.403Z,1030.28
2017-01-26T06:18:36.841Z,1030.33
2017-01-26T06:19:37.526Z,1030.37
2017-01-26T06:20:38.686Z,1030.36
2017-01-26T06:21:39.345Z,1030.3
2017-01-26T06:22:40.058Z,1030.34
2017-01-26T06:23:40.731Z,1030.35
2017-01-26T06:24:41.732Z,1030.33
2017-01-26T06:25:42.610Z,1030.29
2017-01-26T06:26:43.307Z,1030.27
2017-01-26T06:27:43.999Z,1030.33
2017-01-26T06:28:44.665Z,1030.29
2017-01-26T06:29:45.399Z,1030.31
2017-01-26T06:30:46.082Z,1030.29
2017-01-26T06:31:46.743Z,1030.31
2017-01-26T06:32:47.417Z,1030.3
2017-01-26T06:33:48.179Z,1030.27
2017-01-26T06:34:48.784Z,1030.27
2017-01-26T06:35:49.452Z,1030.26
2017-01-26T06:36:50.119Z,1030.24
2017-01-26T06:37:50.814Z,1030.24
2017-01-26T06:38:51.679Z,1030.28
2017-01-26T06:39:52.252Z,1030.23
2017-01-26T06:40:52.957Z,1030.3
2017-01-26T06:41:53.631Z,1030.25
2017-01-26T06:42:54.358Z,1030.29
2017-01-26T06:43:55.151Z,1030.3
2017-01-26T06:44:55.814Z,1030.3
2017-01-26T06:45:56.508Z,1030.22
2017-01-26T06:46:57.200Z,1030.23
2017-01-26T06:47:57.926Z,1030.27
2017-01-26T06:48:58.609Z,1030.24
2017-01-26T06:49:59.278Z,1030.2
2017-01-26T06:51:00.068Z,1030.2
2017-01-26T06:52:00.749Z,1030.23
2017-01-26T06:53:01.439Z,1030.25
2017-01-26T06:54:02.273Z,1030.23
2017-01-26T06:55:02.944Z,1030.22
2017-01-26T06:56:03.616Z,1030.27
2017-01-26T06:57:04.278Z,1030.24
2017-01-26T06:58:04.979Z,1030.21
2017-01-26T06:59:05.734Z,1030.2
2017-01-26T07:00:06.412Z,1030.19
2017-01-26T07:01:07.081Z,1030.2
2017-01-26T07:02:07.742Z,1030.24
2017-01-26T07:03:08.430Z,1030.22
2017-01-26T07:04:09.123Z,1030.26
2017-01-26T07:05:09.784Z,1030.2
2017-01-26T07:06:10.500Z,1030.22
2017-01-26T07:07:11.177Z,1030.26
2017-01-26T07:08:11.851Z,1030.26
2017-01-26T07:09:12.522Z,1030.2
2017-01-26T07:10:13.210Z,1030.28
2017-01-26T07:11:13.909Z,1030.2
2017-01-26T07:12:14.619Z,1030.24
2017-01-26T07:13:15.327Z,1030.25
2017-01-26T07:14:16.007Z,1030.24
2017-01-26T07:15:16.702Z,1030.21
2017-01-26T07:16:17.370Z,1030.25
2017-01-26T07:17:18.054Z,1030.28
2017-01-26T07:18:18.748Z,1030.21
2017-01-26T07:19:19.426Z,1030.23
2017-01-26T07:20:20.098Z,1030.24
2017-01-26T07:21:20.769Z,1030.21
2017-01-26T07:22:21.465Z,1030.2
2017-01-26T07:23:22.119Z,1030.22
2017-01-26T07:24:22.807Z,1030.2
2017-01-26T07:25:23.487Z,1030.23
2017-01-26T07:26:24.208Z,1030.23
2017-01-26T07:27:24.890Z,1030.21
2017-01-26T07:28:25.556Z,1030.23
2017-01-26T07:29:26.237Z,1030.2
2017-01-26T07:30:26.908Z,1030.25
2017-01-26T07:31:27.627Z,1030.26
2017-01-26T07:32:28.302Z,1030.19
2017-01-26T07:33:28.973Z,1030.26
2017-01-26T07:34:29.676Z,1030.23
2017-01-26T07:35:30.373Z,1030.25
2017-01-26T07:36:31.043Z,1030.3
2017-01-26T07:37:31.712Z,1030.22
2017-01-26T07:38:32.444Z,1030.23
2017-01-26T07:39:33.104Z,1030.24
2017-01-26T07:40:33.841Z,1030.21
2017-01-26T07:41:34.559Z,1030.23
2017-01-26T07:42:35.226Z,1030.26
2017-01-26T07:43:35.962Z,1030.22
2017-01-26T07:44:36.600Z,1030.27
2017-01-26T07:45:37.293Z,1030.25
2017-01-26T07:46:37.977Z,1030.23
2017-01-26T07:47:38.646Z,1030.26
2017-01-26T07:48:39.311Z,1030.2
2017-01-26T07:49:39.988Z,1030.22
2017-01-26T07:50:40.657Z,1030.2
2017-01-26T07:51:41.336Z,1030.24
2017-01-26T07:52:42.006Z,1030.3
2017-01-26T07:53:42.674Z,1030.34
2017-01-26T07:54:43.352Z,1030.3
2017-01-26T07:55:44.040Z,1030.29
2017-01-26T07:56:44.750Z,1030.28
2017-01-26T07:57:45.418Z,1030.27
2017-01-26T07:58:46.101Z,1030.2
2017-01-26T07:59:46.789Z,1030.26
2017-01-26T08:00:47.460Z,1030.23
2017-01-26T08:01:48.127Z,1030.24
2017-01-26T08:02:48.790Z,1030.23
2017-01-26T08:03:49.465Z,1030.28
2017-01-26T08:04:50.163Z,1030.3
2017-01-26T08:05:50.834Z,1030.25
2017-01-26T08:06:51.510Z,1030.25
2017-01-26T08:07:52.193Z,1030.24
2017-01-26T08:08:52.868Z,1030.25
2017-01-26T08:09:53.538Z,1030.22
2017-01-26T08:10:54.215Z,1030.26
2017-01-26T08:11:54.894Z,1030.27
2017-01-26T08:12:55.568Z,1030.25
2017-01-26T08:13:56.239Z,1030.25
2017-01-26T08:14:56.940Z,1030.29
2017-01-26T08:15:57.663Z,1030.32
2017-01-26T08:16:58.350Z,1030.35
2017-01-26T08:17:59.035Z,1030.3
2017-01-26T08:18:59.700Z,1030.33
2017-01-26T08:20:00.371Z,1030.31
2017-01-26T08:21:01.060Z,1030.29
2017-01-26T08:22:01.741Z,1030.26
2017-01-26T08:23:02.433Z,1030.29
2017-01-26T08:24:03.134Z,1030.28
2017-01-26T08:25:03.811Z,1030.29
2017-01-26T08:26:04.477Z,1030.3
2017-01-26T08:27:05.183Z,1030.31
2017-01-26T08:28:05.883Z,1030.22
2017-01-26T08:29:06.561Z,1030.29
2017-01-26T08:30:07.247Z,1030.32
2017-01-26T08:31:07.921Z,1030.42
2017-01-26T08:32:08.590Z,1030.32
2017-01-26T08:33:09.288Z,1030.32
2017-01-26T08:34:09.955Z,1030.37
2017-01-26T08:35:10.643Z,1030.33
2017-01-26T08:36:11.312Z,1030.33
2017-01-26T08:37:11.983Z,1030.35
2017-01-26T08:38:12.648Z,1030.36
2017-01-26T08:39:13.326Z,1030.36
2017-01-26T08:40:14.006Z,1030.36
2017-01-26T08:41:14.686Z,1030.39
2017-01-26T08:42:15.368Z,1030.42
2017-01-26T08:43:16.057Z,1030.37
2017-01-26T08:44:16.745Z,1030.37
2017-01-26T08:45:17.421Z,1030.31
2017-01-26T08:46:18.096Z,1030.33
2017-01-26T08:47:18.803Z,1030.28
2017-01-26T08:48:19.474Z,1030.27
2017-01-26T08:49:20.148Z,1030.33
2017-01-26T08:50:20.827Z,1030.33
2017-01-26T08:51:21.528Z,1030.36
2017-01-26T08:52:22.252Z,1030.31
2017-01-26T08:53:22.942Z,1030.39
2017-01-26T08:54:23.633Z,1030.42
2017-01-26T08:55:24.298Z,1030.38
2017-01-26T08:56:24.992Z,1030.32
2017-01-26T08:57:25.710Z,1030.35
2017-01-26T08:58:26.390Z,1030.29
2017-01-26T08:59:27.062Z,1030.3
2017-01-26T09:00:27.736Z,1030.3
2017-01-26T09:01:28.408Z,1030.3
2017-01-26T09:02:29.103Z,1030.33
2017-01-26T09:03:29.777Z,1030.32
2017-01-26T09:04:30.445Z,1030.29
2017-01-26T09:05:31.118Z,1030.24
2017-01-26T09:06:31.796Z,1030.25
2017-01-26T09:07:32.469Z,1030.25
2017-01-26T09:08:33.137Z,1030.26
2017-01-26T09:09:33.831Z,1030.29
2017-01-26T09:10:34.520Z,1030.29
2017-01-26T09:11:35.225Z,1030.26
2017-01-26T09:12:35.911Z,1030.29
2017-01-26T09:13:36.587Z,1030.34
2017-01-26T09:14:37.283Z,1030.29
2017-01-26T09:15:37.966Z,1030.27
2017-01-26T09:16:38.644Z,1030.26
2017-01-26T09:17:39.315Z,1030.24
2017-01-26T09:18:39.983Z,1030.2
2017-01-26T09:19:40.653Z,1030.3
2017-01-26T09:20:41.402Z,1030.27
2017-01-26T09:21:42.086Z,1030.28
2017-01-26T09:22:42.776Z,1030.24
2017-01-26T09:23:43.463Z,1030.28
2017-01-26T09:24:44.168Z,1030.34
2017-01-26T09:25:44.839Z,1030.27
2017-01-26T09:26:45.523Z,1030.27
2017-01-26T09:27:46.194Z,1030.25
2017-01-26T09:28:46.883Z,1030.28
2017-01-26T09:29:47.578Z,1030.27
2017-01-26T09:30:48.515Z,1030.3
2017-01-26T09:31:49.242Z,1030.28
2017-01-26T09:32:49.951Z,1030.3
2017-01-26T09:33:50.639Z,1030.31
2017-01-26T09:34:51.351Z,1030.3
2017-01-26T09:35:52.096Z,1030.25
2017-01-26T09:36:52.855Z,1030.25
2017-01-26T09:37:58.304Z,1030.3
2017-01-26T09:38:58.069Z,1030.39
2017-01-26T09:39:58.796Z,1030.29
2017-01-26T09:41:04.637Z,1030.26
2017-01-26T09:42:05.890Z,1030.3
2017-01-26T09:43:06.140Z,1030.3
2017-01-26T09:44:06.841Z,1030.31
2017-01-26T09:45:07.513Z,1030.34
2017-01-26T09:46:08.202Z,1030.33
2017-01-26T09:47:08.884Z,1030.34
2017-01-26T09:48:09.696Z,1030.32
2017-01-26T09:49:12.299Z,1030.32
2017-01-26T09:50:13.163Z,1030.21
2017-01-26T09:51:13.853Z,1030.21
2017-01-26T09:52:14.533Z,1030.18
2017-01-26T09:53:15.238Z,1030.16
2017-01-26T09:54:15.936Z,1030.29
2017-01-26T09:55:16.630Z,1030.18
2017-01-26T09:56:17.472Z,1030.21
2017-01-26T09:57:18.146Z,1030.21
2017-01-26T09:58:18.817Z,1030.2
2017-01-26T09:59:19.496Z,1030.17
2017-01-26T10:00:20.202Z,1030.23
2017-01-26T10:01:20.913Z,1030.14
2017-01-26T10:02:21.605Z,1030.15
2017-01-26T10:03:22.304Z,1030.13
2017-01-26T10:04:22.987Z,1030.15
2017-01-26T10:05:23.677Z,1030.16
2017-01-26T10:06:24.344Z,1030.09
2017-01-26T10:07:25.017Z,1030.12
2017-01-26T10:08:25.897Z,1030.14
2017-01-26T10:09:26.590Z,1030.07
2017-01-26T10:10:27.261Z,1030.07
2017-01-26T10:11:27.950Z,1030.07
2017-01-26T10:12:28.629Z,1030.08
2017-01-26T10:13:29.303Z,1030.06
2017-01-26T10:14:29.985Z,1030.07
2017-01-26T10:15:30.655Z,1030.06
2017-01-26T10:16:31.333Z,1030.03
2017-01-26T10:17:32.026Z,1030
2017-01-26T10:18:32.721Z,1030.05
2017-01-26T10:19:33.411Z,1030.01
2017-01-26T10:20:34.136Z,1029.98
2017-01-26T10:21:34.842Z,1029.96
2017-01-26T10:22:35.524Z,1029.92
2017-01-26T10:23:36.200Z,1029.93
2017-01-26T10:24:36.966Z,1029.93
2017-01-26T10:25:37.674Z,1029.93
2017-01-26T10:26:38.358Z,1029.89
2017-01-26T10:27:39.049Z,1029.95
2017-01-26T10:28:39.726Z,1029.94
2017-01-26T10:29:40.480Z,1029.91
2017-01-26T10:30:41.168Z,1029.86
2017-01-26T10:31:41.850Z,1029.85
2017-01-26T10:32:42.530Z,1029.87
2017-01-26T10:33:43.228Z,1029.85
2017-01-26T10:34:43.911Z,1029.8
2017-01-26T10:35:44.603Z,1029.86
2017-01-26T10:36:45.271Z,1029.9
2017-01-26T10:37:45.952Z,1029.74
2017-01-26T10:38:46.613Z,1029.76
2017-01-26T10:39:47.307Z,1029.7
2017-01-26T10:40:47.991Z,1029.66
2017-01-26T10:41:48.698Z,1029.71
2017-01-26T10:42:49.556Z,1029.7
2017-01-26T10:43:50.237Z,1029.7
2017-01-26T10:44:50.935Z,1029.68
2017-01-26T10:45:51.719Z,1029.72
2017-01-26T10:46:52.423Z,1029.68
2017-01-26T10:47:53.158Z,1029.7
2017-01-26T10:48:53.831Z,1029.7
2017-01-26T10:49:54.521Z,1029.64
2017-01-26T10:50:55.208Z,1029.64
2017-01-26T10:51:55.895Z,1029.65
2017-01-26T10:52:56.630Z,1029.68
2017-01-26T10:53:57.324Z,1029.66
2017-01-26T10:54:58.007Z,1029.66
2017-01-26T10:55:58.771Z,1029.67
2017-01-26T10:56:59.484Z,1029.6
2017-01-26T10:58:00.172Z,1029.65
2017-01-26T10:59:00.840Z,1029.59
2017-01-26T11:00:01.515Z,1029.57
2017-01-26T11:01:02.229Z,1029.58
2017-01-26T11:02:02.899Z,1029.66
2017-01-26T11:03:03.589Z,1029.5
2017-01-26T11:04:04.295Z,1029.52
2017-01-26T11:05:04.970Z,1029.63
2017-01-26T11:06:05.678Z,1029.56
2017-01-26T11:07:06.344Z,1029.55
2017-01-26T11:08:07.031Z,1029.53
2017-01-26T11:09:07.719Z,1029.53
2017-01-26T11:10:08.410Z,1029.48
2017-01-26T11:11:09.097Z,1029.44
2017-01-26T11:12:09.817Z,1029.46
2017-01-26T11:13:10.502Z,1029.53
2017-01-26T11:14:11.272Z,1029.41
2017-01-26T11:15:11.954Z,1029.52
2017-01-26T11:16:12.634Z,1029.42
2017-01-26T11:17:13.326Z,1029.42
2017-01-26T11:18:14.039Z,1029.47
2017-01-26T11:19:14.739Z,1029.44
2017-01-26T11:20:15.410Z,1029.55
2017-01-26T11:21:16.112Z,1029.47
2017-01-26T11:22:16.801Z,1029.43
2017-01-26T11:23:17.556Z,1029.5
2017-01-26T11:24:18.261Z,1029.45
2017-01-26T11:25:18.937Z,1029.37
2017-01-26T11:26:19.717Z,1029.31
2017-01-26T11:27:20.587Z,1029.35
2017-01-26T11:28:21.305Z,1029.25
2017-01-26T11:29:22.027Z,1029.32
2017-01-26T11:30:22.735Z,1029.29
2017-01-26T11:31:23.573Z,1029.25
2017-01-26T11:32:24.130Z,1029.26
2017-01-26T11:33:24.810Z,1029.26
2017-01-26T11:34:25.504Z,1029.21
2017-01-26T11:35:26.199Z,1029.18
2017-01-26T11:36:27.052Z,1029.24
2017-01-26T11:37:27.731Z,1029.22
2017-01-26T11:38:28.542Z,1029.1
2017-01-26T11:39:29.157Z,1029.2
2017-01-26T11:40:29.862Z,1029.17
2017-01-26T11:41:30.551Z,1029.14
2017-01-26T11:42:31.226Z,1029.11
2017-01-26T11:43:32.035Z,1029.07
2017-01-26T11:44:33.176Z,1029.06
2017-01-26T11:45:33.915Z,1029.08
2017-01-26T11:46:34.600Z,1029.06
2017-01-26T11:47:35.319Z,1029.09
2017-01-26T11:48:35.963Z,1029.11
2017-01-26T11:49:36.640Z,1029.1
2017-01-26T11:50:37.330Z,1029.07
2017-01-26T11:51:38.015Z,1029.02
2017-01-26T11:52:39.498Z,1029.01
2017-01-26T11:53:40.427Z,1029.05
2017-01-26T11:54:40.953Z,1029.03
2017-01-26T11:55:41.713Z,1029.06
2017-01-26T11:56:42.422Z,1029.06
2017-01-26T11:57:43.140Z,1029.01
2017-01-26T11:58:43.913Z,1029.05
2017-01-26T11:59:44.585Z,1029.02
2017-01-26T12:00:45.259Z,1028.96
2017-01-26T12:01:45.948Z,1028.94
2017-01-26T12:02:46.927Z,1028.93
2017-01-26T12:03:47.622Z,1028.96
2017-01-26T12:04:48.565Z,1028.94
2017-01-26T12:05:49.103Z,1028.91
2017-01-26T12:06:50.573Z,1028.94
2017-01-26T12:07:51.272Z,1028.86
2017-01-26T12:08:51.938Z,1028.89
2017-01-26T12:09:52.625Z,1028.96
2017-01-26T12:10:53.504Z,1028.86
2017-01-26T12:11:54.033Z,1028.85
2017-01-26T12:12:54.720Z,1028.95
2017-01-26T12:13:55.400Z,1028.81
2017-01-26T12:14:56.121Z,1028.87
2017-01-26T12:15:56.882Z,1028.85
2017-01-26T12:16:57.573Z,1028.82